Time;durP1;ratioP1;P1;durP2;ratioP2;P2;SDS_P1;SDS_P2;PMS_P1;PMS_P2;Temp;Humidity;BMP_temperature;BMP_pressure;BME280_temperature;BME280_humidity;BME280_pressure;Samples;Min_cycle;Max_cycle;Signal;HPM_P1;HPM_P2
2022/10/22 00:00:36;;;;;;;16.48;3.08;;;14.80;99.90;;;;;;5008870;28;20072;-69
2022/10/22 00:03:02;;;;;;;18.08;3.13;;;14.80;99.90;;;;;;5008837;28;20045;-69
2022/10/22 00:05:29;;;;;;;13.07;2.20;;;14.70;99.90;;;;;;5009014;28;20046;-69
2022/10/22 00:07:56;;;;;;;10.80;3.13;;;14.80;99.90;;;;;;5008970;28;20383;-69
2022/10/22 00:10:22;;;;;;;19.20;1.83;;;14.70;99.90;;;;;;5008872;28;20052;-69
2022/10/22 00:12:49;;;;;;;14.88;1.95;;;14.70;99.90;;;;;;5008675;28;20053;-68
2022/10/22 00:15:16;;;;;;;14.93;2.60;;;14.70;99.90;;;;;;5009082;28;20484;-68
2022/10/22 00:17:43;;;;;;;15.88;2.05;;;14.70;99.90;;;;;;5008483;28;20536;-68
2022/10/22 00:20:10;;;;;;;15.57;2.40;;;14.70;99.90;;;;;;5008453;28;20156;-68
2022/10/22 00:22:37;;;;;;;20.70;2.38;;;14.80;99.90;;;;;;5006993;28;20050;-69
2022/10/22 00:25:03;;;;;;;16.25;3.55;;;14.80;99.90;;;;;;5008281;28;20049;-67
2022/10/22 00:27:30;;;;;;;15.05;2.55;;;14.80;99.90;;;;;;5008709;28;20049;-68
2022/10/22 00:29:57;;;;;;;8.52;2.10;;;14.80;99.90;;;;;;5008512;28;20053;-68
2022/10/22 00:32:24;;;;;;;15.90;2.10;;;14.80;99.90;;;;;;5008617;28;20045;-68
2022/10/22 00:34:50;;;;;;;14.45;2.58;;;14.80;99.90;;;;;;5008716;28;20045;-66
2022/10/22 00:37:17;;;;;;;9.75;1.73;;;14.80;99.90;;;;;;5008093;28;20042;-68
2022/10/22 00:39:44;;;;;;;14.68;1.73;;;14.90;99.90;;;;;;5008404;28;20061;-68
2022/10/22 00:42:23;;;;;;;11.98;1.88;;;14.80;99.90;;;;;;5008673;28;20038;-68
2022/10/22 00:45:08;;;;;;;9.45;1.90;;;14.90;99.90;;;;;;5007381;28;20421;-69
2022/10/22 00:47:40;;;;;;;11.45;1.90;;;14.90;99.90;;;;;;5008049;28;20053;-67
2022/10/22 00:50:10;;;;;;;9.20;2.17;;;14.90;99.90;;;;;;5001137;28;20421;-68
2022/10/22 00:52:37;;;;;;;7.10;1.30;;;14.90;99.90;;;;;;5008603;28;20034;-70
2022/10/22 00:55:04;;;;;;;8.40;1.77;;;14.90;99.90;;;;;;5007357;28;20057;-69
2022/10/22 00:57:31;;;;;;;8.77;1.45;;;14.90;99.90;;;;;;5007315;28;20050;-69
2022/10/22 00:59:59;;;;;;;6.30;1.50;;;14.90;99.90;;;;;;5003372;28;20061;-69
2022/10/22 01:02:26;;;;;;;13.18;1.90;;;14.90;99.90;;;;;;5007676;28;20046;-69
2022/10/22 01:04:53;;;;;;;13.18;2.10;;;14.90;99.90;;;;;;5008019;28;20538;-69
2022/10/22 01:07:21;;;;;;;13.65;2.55;;;14.90;99.90;;;;;;5008615;28;20045;-69
2022/10/22 01:10:16;;;;;;;10.43;2.25;;;14.90;99.90;;;;;;5006715;28;20072;-69
2022/10/22 01:13:14;;;;;;;8.95;1.83;;;14.90;99.90;;;;;;5008829;28;20053;-68
2022/10/22 01:15:47;;;;;;;14.27;2.25;;;14.90;99.90;;;;;;5006348;28;20475;-68
2022/10/22 01:18:31;;;;;;;11.63;1.92;;;14.90;99.90;;;;;;5008235;28;20054;-68
2022/10/22 01:21:19;;;;;;;9.95;1.98;;;14.90;99.90;;;;;;5007817;28;20061;-68
2022/10/22 01:24:07;;;;;;;8.98;2.63;;;14.80;99.90;;;;;;5007055;28;20064;-68
2022/10/22 01:26:49;;;;;;;13.68;2.08;;;14.80;99.90;;;;;;4998041;28;20065;-68
2022/10/22 01:29:28;;;;;;;14.85;2.80;;;14.80;99.90;;;;;;5006857;28;20125;-69
2022/10/22 01:31:58;;;;;;;15.98;1.92;;;14.70;99.90;;;;;;5007089;28;20067;-69
2022/10/22 01:34:25;;;;;;;16.45;2.72;;;14.70;99.90;;;;;;5006536;28;20156;-67
2022/10/22 01:36:52;;;;;;;10.65;2.95;;;14.70;99.90;;;;;;5006934;28;20064;-68
2022/10/22 01:39:19;;;;;;;17.42;2.45;;;14.60;99.90;;;;;;5006403;28;20276;-69
2022/10/22 01:41:45;;;;;;;12.23;2.10;;;14.60;99.90;;;;;;4990874;28;20505;-67
2022/10/22 01:44:29;;;;;;;11.85;2.15;;;14.60;99.90;;;;;;5010990;28;20077;-67
2022/10/22 01:47:21;;;;;;;11.68;1.73;;;14.60;99.90;;;;;;5008381;28;20297;-67
2022/10/22 01:50:12;;;;;;;13.07;2.53;;;14.60;99.90;;;;;;5008568;28;20072;-68
2022/10/22 01:53:05;;;;;;;16.00;2.42;;;14.70;99.90;;;;;;5011606;28;20142;-67
2022/10/22 01:55:47;;;;;;;9.38;2.03;;;14.60;99.90;;;;;;5011258;28;20493;-68
2022/10/22 01:58:29;;;;;;;13.48;1.98;;;14.70;99.90;;;;;;5010130;28;20041;-69
2022/10/22 02:00:59;;;;;;;17.63;3.20;;;14.70;99.90;;;;;;5009767;28;20053;-67
2022/10/22 02:03:30;;;;;;;17.23;3.33;;;14.70;99.90;;;;;;5009695;28;20497;-69
2022/10/22 02:06:00;;;;;;;8.40;2.17;;;14.70;99.90;;;;;;5009893;28;20057;-69
2022/10/22 02:08:30;;;;;;;18.00;1.92;;;14.70;99.90;;;;;;5009884;28;20390;-69
2022/10/22 02:10:56;;;;;;;17.83;3.53;;;14.70;99.90;;;;;;5010588;28;20049;-69
2022/10/22 02:13:32;;;;;;;9.93;3.33;;;14.70;99.90;;;;;;5009825;28;20084;-69
2022/10/22 02:15:58;;;;;;;14.40;1.90;;;14.70;99.90;;;;;;5009641;28;20064;-69
2022/10/22 02:18:27;;;;;;;5.68;1.40;;;14.70;99.90;;;;;;5011099;28;20060;-69
2022/10/22 02:20:54;;;;;;;15.10;2.28;;;14.70;99.90;;;;;;5026484;28;20236;-69
2022/10/22 02:23:21;;;;;;;13.90;2.20;;;14.70;99.90;;;;;;5009455;28;20064;-69
2022/10/22 02:25:51;;;;;;;13.00;1.75;;;14.70;99.90;;;;;;5010954;28;20935;-69
2022/10/22 02:28:20;;;;;;;14.07;1.83;;;14.80;99.90;;;;;;5026390;28;20053;-68
2022/10/22 02:30:50;;;;;;;13.05;1.85;;;14.80;99.90;;;;;;5009412;28;20057;-69
2022/10/22 02:33:20;;;;;;;6.15;1.55;;;14.80;99.90;;;;;;5007059;28;20273;-69
2022/10/22 02:35:47;;;;;;;15.98;2.53;;;14.70;99.90;;;;;;5009430;28;20042;-68
2022/10/22 02:38:13;;;;;;;15.82;2.10;;;14.70;99.90;;;;;;5023885;28;20500;-69
2022/10/22 02:40:40;;;;;;;12.15;1.92;;;14.70;99.90;;;;;;5008647;28;20054;-68
2022/10/22 02:43:07;;;;;;;13.80;3.38;;;14.70;99.90;;;;;;5007689;28;20061;-67
2022/10/22 02:45:34;;;;;;;13.70;2.10;;;14.70;99.90;;;;;;5009041;28;20052;-67
2022/10/22 02:48:00;;;;;;;12.27;2.38;;;14.70;99.90;;;;;;5025206;28;20042;-68
2022/10/22 02:50:27;;;;;;;14.75;2.33;;;14.70;99.90;;;;;;5009470;28;20046;-67
2022/10/22 02:52:54;;;;;;;12.43;3.35;;;14.70;99.90;;;;;;5010399;28;20042;-67
2022/10/22 02:55:21;;;;;;;10.20;2.05;;;14.70;99.90;;;;;;5009142;28;20049;-67
2022/10/22 02:57:47;;;;;;;6.93;1.70;;;14.70;99.90;;;;;;5009838;28;20046;-67
2022/10/22 03:00:15;;;;;;;11.50;2.75;;;14.70;99.90;;;;;;5009924;28;20780;-69
2022/10/22 03:02:41;;;;;;;7.53;1.70;;;14.70;99.90;;;;;;5009553;28;20041;-68
2022/10/22 03:05:08;;;;;;;15.13;2.15;;;14.70;99.90;;;;;;5009681;28;20041;-68
2022/10/22 03:07:35;;;;;;;9.05;1.77;;;14.80;99.90;;;;;;5009750;28;20042;-68
2022/10/22 03:10:02;;;;;;;9.63;1.60;;;14.80;99.90;;;;;;5009834;28;20391;-68
2022/10/22 03:12:29;;;;;;;10.30;1.33;;;14.80;99.90;;;;;;5009597;28;20046;-68
2022/10/22 03:14:56;;;;;;;8.38;1.88;;;14.80;99.90;;;;;;5009821;28;20050;-68
2022/10/22 03:17:23;;;;;;;12.70;1.83;;;14.80;99.90;;;;;;5008204;28;20346;-68
2022/10/22 03:19:49;;;;;;;5.82;1.13;;;14.70;99.90;;;;;;5008036;28;20077;-68
2022/10/22 03:22:34;;;;;;;14.55;3.45;;;14.70;99.90;;;;;;5009607;28;20489;-68
2022/10/22 03:25:06;;;;;;;9.38;1.75;;;14.60;99.90;;;;;;5008326;28;20046;-68
2022/10/22 03:27:33;;;;;;;11.05;1.10;;;14.50;99.90;;;;;;5009319;28;20068;-69
2022/10/22 03:30:00;;;;;;;10.25;1.38;;;14.40;99.90;;;;;;5008217;28;20046;-67
2022/10/22 03:32:27;;;;;;;6.30;1.60;;;14.40;99.90;;;;;;5009694;28;20046;-67
2022/10/22 03:34:54;;;;;;;12.20;1.85;;;14.40;99.90;;;;;;5009300;28;20049;-67
2022/10/22 03:37:20;;;;;;;9.23;1.33;;;14.40;99.90;;;;;;5009665;28;20136;-68
2022/10/22 03:39:47;;;;;;;9.25;1.70;;;14.40;99.90;;;;;;5007513;28;20098;-68
2022/10/22 03:42:15;;;;;;;9.82;1.50;;;14.40;99.90;;;;;;5008111;28;20046;-68
2022/10/22 03:44:41;;;;;;;13.70;3.08;;;14.40;99.90;;;;;;5023764;28;20057;-68
2022/10/22 03:47:09;;;;;;;11.73;1.25;;;14.40;99.90;;;;;;5009584;28;20389;-68
2022/10/22 03:49:35;;;;;;;14.38;1.33;;;14.50;99.90;;;;;;5008916;28;20042;-68
2022/10/22 03:52:07;;;;;;;9.10;1.52;;;14.50;99.90;;;;;;5008896;28;20664;-68
2022/10/22 03:54:34;;;;;;;6.18;1.00;;;14.50;99.90;;;;;;5008750;28;20044;-68
2022/10/22 03:57:02;;;;;;;14.45;1.13;;;14.50;99.90;;;;;;5008886;28;20064;-68
2022/10/22 03:59:36;;;;;;;9.73;1.38;;;14.50;99.90;;;;;;5008845;28;20064;-68
2022/10/22 04:02:03;;;;;;;10.82;1.27;;;14.50;99.90;;;;;;5009006;28;21198;-68
2022/10/22 04:04:30;;;;;;;6.75;2.42;;;14.50;99.90;;;;;;5001749;28;20292;-68
2022/10/22 04:06:56;;;;;;;4.35;1.15;;;14.40;99.90;;;;;;5005569;28;20061;-68
2022/10/22 04:09:23;;;;;;;8.52;1.95;;;14.40;99.90;;;;;;5008094;28;20057;-68
2022/10/22 04:11:50;;;;;;;4.63;0.85;;;14.40;99.90;;;;;;5007198;28;20273;-66
2022/10/22 04:14:17;;;;;;;7.47;1.35;;;14.30;99.90;;;;;;5008052;28;20077;-67
2022/10/22 04:16:43;;;;;;;10.85;1.88;;;14.30;99.90;;;;;;5008628;28;20421;-67
2022/10/22 04:19:10;;;;;;;12.45;1.40;;;14.20;99.90;;;;;;5008054;28;20056;-67
2022/10/22 04:21:37;;;;;;;8.15;1.40;;;14.20;99.90;;;;;;5008512;28;20052;-68
2022/10/22 04:24:03;;;;;;;13.65;1.48;;;14.20;99.90;;;;;;5008709;28;20046;-67
2022/10/22 04:26:30;;;;;;;13.50;2.00;;;14.20;99.90;;;;;;5009933;28;20052;-67
2022/10/22 04:28:57;;;;;;;7.32;1.73;;;14.20;99.90;;;;;;5011332;28;20052;-67
2022/10/22 04:31:24;;;;;;;11.13;1.63;;;14.20;99.90;;;;;;5009215;28;20050;-67
2022/10/22 04:33:56;;;;;;;13.45;1.83;;;14.10;99.90;;;;;;4988767;28;20052;-67
2022/10/22 04:36:23;;;;;;;11.48;2.42;;;14.10;99.90;;;;;;5003112;28;20508;-67
2022/10/22 04:38:57;;;;;;;15.45;2.15;;;14.10;99.90;;;;;;5008016;28;20045;-68
2022/10/22 04:41:26;;;;;;;8.10;1.50;;;14.10;99.90;;;;;;5006798;28;20362;-68
2022/10/22 04:43:53;;;;;;;7.45;1.80;;;14.00;99.90;;;;;;5008222;28;20050;-67
2022/10/22 04:46:20;;;;;;;7.28;1.02;;;14.00;99.90;;;;;;5006840;28;20054;-67
2022/10/22 04:48:47;;;;;;;12.27;3.65;;;14.00;99.90;;;;;;5007801;28;20046;-67
2022/10/22 04:51:16;;;;;;;6.03;1.58;;;14.00;99.90;;;;;;5008336;28;20064;-67
2022/10/22 04:53:42;;;;;;;8.40;1.58;;;13.90;99.90;;;;;;5008369;28;20049;-67
2022/10/22 04:56:10;;;;;;;14.80;2.50;;;13.90;99.90;;;;;;5008203;28;20049;-66
2022/10/22 04:58:37;;;;;;;11.75;1.27;;;13.90;99.90;;;;;;5007903;28;20061;-67
2022/10/22 05:01:36;;;;;;;9.82;2.00;;;13.80;99.90;;;;;;5008005;28;20401;-67
2022/10/22 05:04:10;;;;;;;22.08;2.20;;;13.80;99.90;;;;;;4998793;28;20046;-67
2022/10/22 05:06:37;;;;;;;18.00;1.95;;;13.80;99.90;;;;;;5007621;28;20049;-66
2022/10/22 05:09:06;;;;;;;12.00;2.33;;;13.80;99.90;;;;;;5008043;28;20056;-67
2022/10/22 05:11:37;;;;;;;12.25;1.80;;;13.70;99.90;;;;;;5007639;28;20046;-68
2022/10/22 05:14:04;;;;;;;15.80;1.95;;;13.70;99.90;;;;;;5007979;28;20054;-67
2022/10/22 05:16:31;;;;;;;12.32;1.60;;;13.70;99.90;;;;;;5006512;28;20046;-67
2022/10/22 05:18:59;;;;;;;13.23;2.78;;;13.70;99.90;;;;;;5007280;28;20563;-67
2022/10/22 05:21:26;;;;;;;16.33;2.40;;;13.70;99.90;;;;;;5007729;28;20050;-67
2022/10/22 05:23:53;;;;;;;7.75;1.67;;;13.70;99.90;;;;;;5008641;28;20096;-66
2022/10/22 05:26:20;;;;;;;10.60;1.95;;;13.70;99.90;;;;;;5011530;28;20053;-67
2022/10/22 05:28:48;;;;;;;23.35;3.58;;;13.60;99.90;;;;;;5010218;28;20048;-67
2022/10/22 05:31:14;;;;;;;9.75;1.88;;;13.60;99.90;;;;;;5011906;28;20058;-67
2022/10/22 05:33:41;;;;;;;17.65;2.10;;;13.60;99.90;;;;;;5009968;28;20042;-67
2022/10/22 05:36:12;;;;;;;15.88;2.55;;;13.60;99.90;;;;;;5013149;28;20042;-67
2022/10/22 05:38:39;;;;;;;16.83;2.53;;;13.50;99.90;;;;;;5012384;28;20061;-67
2022/10/22 05:41:08;;;;;;;12.75;1.80;;;13.50;99.90;;;;;;5013748;28;20057;-67
2022/10/22 05:43:35;;;;;;;13.25;1.95;;;13.50;99.90;;;;;;5014066;28;20070;-67
2022/10/22 05:46:10;;;;;;;11.50;3.08;;;13.50;99.90;;;;;;5014265;28;20042;-67
2022/10/22 05:48:37;;;;;;;11.27;1.88;;;13.40;99.90;;;;;;5013612;28;20041;-68
2022/10/22 05:51:05;;;;;;;17.95;2.45;;;13.40;99.90;;;;;;5011459;28;20046;-67
2022/10/22 05:53:32;;;;;;;8.73;1.80;;;13.40;99.90;;;;;;5010915;28;20045;-68
2022/10/22 05:56:04;;;;;;;17.80;2.15;;;13.30;99.90;;;;;;5009940;28;20053;-67
2022/10/22 05:58:31;;;;;;;20.73;3.08;;;13.30;99.90;;;;;;5010739;28;20149;-67
2022/10/22 06:01:28;;;;;;;14.50;1.73;;;13.30;99.90;;;;;;5011260;28;20053;-67
2022/10/22 06:03:56;;;;;;;12.10;2.17;;;13.30;99.90;;;;;;5001326;28;20052;-68
2022/10/22 06:06:42;;;;;;;13.27;1.73;;;13.30;99.90;;;;;;5010720;28;20327;-67
2022/10/22 06:09:21;;;;;;;10.65;2.17;;;13.30;99.90;;;;;;5009404;28;20080;-67
2022/10/22 06:11:48;;;;;;;14.15;1.70;;;13.30;99.90;;;;;;5009737;28;20416;-68
2022/10/22 06:14:15;;;;;;;16.15;2.15;;;13.20;99.90;;;;;;5010971;28;20521;-67
2022/10/22 06:16:42;;;;;;;11.52;3.05;;;13.20;99.90;;;;;;5011276;28;20048;-68
2022/10/22 06:19:12;;;;;;;17.55;3.17;;;13.20;99.90;;;;;;5011672;28;20064;-67
2022/10/22 06:21:39;;;;;;;9.85;2.47;;;13.20;99.90;;;;;;5013717;28;20069;-67
2022/10/22 06:24:06;;;;;;;15.95;2.30;;;13.20;99.90;;;;;;5013930;28;20049;-67
2022/10/22 06:26:33;;;;;;;21.63;2.67;;;13.20;99.90;;;;;;5013426;28;20050;-67
2022/10/22 06:28:59;;;;;;;13.00;2.65;;;13.20;99.90;;;;;;5013047;28;20046;-64
2022/10/22 06:31:26;;;;;;;14.55;2.03;;;13.10;99.90;;;;;;4999700;28;20056;-67
2022/10/22 06:33:55;;;;;;;14.68;2.80;;;13.10;99.90;;;;;;5010306;28;20050;-67
2022/10/22 06:36:22;;;;;;;18.98;4.40;;;13.10;99.90;;;;;;5010078;28;20050;-67
2022/10/22 06:38:52;;;;;;;22.13;3.47;;;13.10;99.90;;;;;;5010192;28;20048;-67
2022/10/22 06:41:19;;;;;;;20.40;3.45;;;13.10;99.90;;;;;;5008816;28;20048;-67
2022/10/22 06:43:52;;;;;;;23.27;3.47;;;13.10;99.90;;;;;;5010372;28;20498;-67
2022/10/22 06:46:19;;;;;;;17.35;4.00;;;13.10;99.90;;;;;;5009726;28;20052;-66
2022/10/22 06:48:51;;;;;;;24.45;4.05;;;13.10;99.90;;;;;;5010059;28;20053;-66
2022/10/22 06:51:18;;;;;;;19.45;2.72;;;13.10;99.90;;;;;;5009101;28;20134;-67
2022/10/22 06:53:44;;;;;;;25.52;2.65;;;13.10;99.90;;;;;;5010071;28;20068;-66
2022/10/22 06:56:13;;;;;;;16.92;3.17;;;13.10;99.90;;;;;;5004100;28;20167;-68
2022/10/22 06:58:40;;;;;;;25.27;3.88;;;13.20;99.90;;;;;;4997187;28;20397;-67
2022/10/22 07:01:11;;;;;;;25.27;3.33;;;13.20;99.90;;;;;;5019295;28;20084;-67
2022/10/22 07:03:38;;;;;;;34.78;4.32;;;13.20;99.90;;;;;;5009891;28;20077;-66
2022/10/22 07:06:07;;;;;;;19.63;3.95;;;13.20;99.90;;;;;;5009773;28;20053;-66
2022/10/22 07:08:34;;;;;;;16.50;4.53;;;13.30;99.90;;;;;;5009955;28;20104;-67
2022/10/22 07:11:08;;;;;;;18.27;3.53;;;13.30;99.90;;;;;;4661467;28;10000001;-67
2022/10/22 07:13:35;;;;;;;21.23;4.05;;;13.50;99.90;;;;;;5008119;28;20056;-67
2022/10/22 07:16:03;;;;;;;22.08;3.95;;;13.30;99.90;;;;;;5007717;28;20517;-66
2022/10/22 07:18:30;;;;;;;19.50;3.85;;;13.40;99.90;;;;;;5006618;28;20060;-67
2022/10/22 07:20:57;;;;;;;20.77;3.92;;;13.40;99.90;;;;;;5006116;28;20414;-67
2022/10/22 07:23:24;;;;;;;30.70;4.70;;;13.40;99.90;;;;;;5005628;28;20541;-68
2022/10/22 07:25:51;;;;;;;29.13;5.10;;;13.50;99.90;;;;;;5006128;28;20076;-67
2022/10/22 07:28:21;;;;;;;30.67;3.88;;;13.50;99.90;;;;;;5006209;28;20054;-68
2022/10/22 07:30:48;;;;;;;22.75;3.80;;;13.50;99.90;;;;;;5005903;28;20561;-67
2022/10/22 07:33:14;;;;;;;21.33;3.13;;;13.60;99.90;;;;;;4991612;28;20060;-68
2022/10/22 07:35:41;;;;;;;29.02;4.38;;;13.70;99.90;;;;;;4987074;28;20054;-67
2022/10/22 07:38:08;;;;;;;21.85;3.55;;;13.70;99.90;;;;;;5006070;28;20125;-67
2022/10/22 07:40:35;;;;;;;25.20;5.80;;;13.80;99.90;;;;;;5005322;28;20060;-67
2022/10/22 07:43:02;;;;;;;20.88;3.20;;;13.80;99.90;;;;;;5005090;28;20502;-67
2022/10/22 07:45:29;;;;;;;20.92;3.35;;;13.80;99.90;;;;;;4989575;28;20060;-67
2022/10/22 07:47:56;;;;;;;21.98;3.92;;;13.90;99.90;;;;;;5003792;28;20065;-68
2022/10/22 07:50:22;;;;;;;16.77;3.00;;;13.80;99.90;;;;;;5006296;28;20046;-69
2022/10/22 07:52:49;;;;;;;26.40;3.50;;;13.80;99.90;;;;;;5006688;28;20053;-69
2022/10/22 07:55:18;;;;;;;20.83;2.95;;;13.80;99.90;;;;;;5002570;28;20125;-65
2022/10/22 07:57:45;;;;;;;33.30;5.05;;;13.90;99.90;;;;;;5004159;28;20186;-67
2022/10/22 08:00:15;;;;;;;17.48;3.92;;;13.80;99.90;;;;;;5005490;28;20054;-67
2022/10/22 08:02:41;;;;;;;30.02;3.92;;;13.90;99.90;;;;;;5005389;28;20046;-67
2022/10/22 08:05:09;;;;;;;24.33;4.05;;;13.90;99.90;;;;;;5005582;28;20054;-69
2022/10/22 08:07:35;;;;;;;25.98;4.10;;;13.80;99.90;;;;;;5004428;28;20061;-68
2022/10/22 08:10:02;;;;;;;21.77;4.32;;;13.90;99.90;;;;;;5005600;28;20054;-68
2022/10/22 08:12:29;;;;;;;22.38;3.17;;;13.90;99.90;;;;;;5005740;28;20045;-68
2022/10/22 08:14:56;;;;;;;25.33;3.38;;;13.90;99.90;;;;;;5004638;28;20050;-67
2022/10/22 08:17:23;;;;;;;22.08;3.30;;;13.90;99.90;;;;;;5005293;28;20089;-67
2022/10/22 08:19:49;;;;;;;22.05;3.55;;;13.90;99.90;;;;;;5005052;28;20073;-67
2022/10/22 08:22:16;;;;;;;23.05;5.80;;;13.90;99.90;;;;;;5005187;28;20057;-68
2022/10/22 08:24:43;;;;;;;23.83;4.15;;;13.90;99.90;;;;;;5004086;28;20048;-66
2022/10/22 08:27:10;;;;;;;13.45;2.67;;;13.90;99.90;;;;;;4997257;28;20081;-67
2022/10/22 08:29:37;;;;;;;25.60;3.30;;;14.00;99.90;;;;;;5003244;28;20508;-66
2022/10/22 08:32:04;;;;;;;14.05;3.42;;;14.00;99.90;;;;;;5011909;28;20466;-67
2022/10/22 08:34:30;;;;;;;16.48;2.97;;;14.00;99.90;;;;;;5004026;28;20060;-67
2022/10/22 08:36:57;;;;;;;21.95;3.28;;;14.00;99.90;;;;;;5005339;28;20079;-67
2022/10/22 08:39:24;;;;;;;25.42;4.40;;;14.10;99.90;;;;;;5003441;28;20054;-68
2022/10/22 08:42:13;;;;;;;21.50;3.70;;;14.10;99.90;;;;;;5005501;28;20083;-68
2022/10/22 08:45:07;;;;;;;26.00;4.78;;;14.10;99.90;;;;;;5003014;28;20489;-68
2022/10/22 08:47:43;;;;;;;17.13;3.05;;;14.10;99.90;;;;;;4984902;28;20054;-67
2022/10/22 08:50:11;;;;;;;16.77;3.08;;;14.20;99.90;;;;;;5003846;28;20044;-66
2022/10/22 08:52:39;;;;;;;23.92;3.05;;;14.20;99.90;;;;;;5002827;28;20069;-67
2022/10/22 08:55:11;;;;;;;31.40;4.65;;;14.20;99.90;;;;;;5003484;28;20042;-66
2022/10/22 08:57:56;;;;;;;24.65;3.33;;;14.20;99.90;;;;;;4999664;28;20065;-68
2022/10/22 09:00:49;;;;;;;24.27;3.90;;;14.30;99.90;;;;;;5008600;28;20405;-67
2022/10/22 09:03:22;;;;;;;21.92;4.97;;;14.40;99.90;;;;;;5008514;28;20046;-67
2022/10/22 09:06:25;;;;;;;13.17;3.03;;;14.40;99.90;;;;;;5009569;28;20053;-67
2022/10/22 09:08:52;;;;;;;19.38;4.93;;;14.40;99.90;;;;;;4986870;28;20050;-66
2022/10/22 09:11:23;;;;;;;27.38;3.90;;;14.50;99.90;;;;;;5009071;28;20053;-67
2022/10/22 09:13:50;;;;;;;24.60;2.95;;;14.60;99.90;;;;;;5007931;28;20053;-68
2022/10/22 09:16:19;;;;;;;14.48;3.88;;;14.70;99.90;;;;;;5006189;28;20049;-68
2022/10/22 09:19:05;;;;;;;19.23;3.40;;;14.80;99.90;;;;;;5007961;28;20146;-69
2022/10/22 09:21:50;;;;;;;27.52;3.97;;;14.90;99.90;;;;;;5005784;28;20115;-69
2022/10/22 09:24:37;;;;;;;24.50;5.47;;;15.00;99.90;;;;;;5009020;28;20104;-67
2022/10/22 09:27:10;;;;;;;17.52;3.42;;;15.00;99.90;;;;;;5005486;28;20057;-68
2022/10/22 09:29:37;;;;;;;22.17;3.07;;;15.10;99.90;;;;;;4973667;28;20409;-66
2022/10/22 09:32:04;;;;;;;23.05;3.65;;;15.20;99.90;;;;;;5006974;28;20302;-66
2022/10/22 09:34:31;;;;;;;12.27;2.80;;;15.20;99.90;;;;;;5009067;28;20050;-66
2022/10/22 09:37:03;;;;;;;18.90;5.25;;;15.30;99.90;;;;;;5023871;28;20045;-66
2022/10/22 09:39:42;;;;;;;23.67;4.35;;;15.40;99.90;;;;;;5007355;28;20046;-68
2022/10/22 09:42:09;;;;;;;17.45;3.35;;;15.50;99.90;;;;;;5008957;28;20394;-67
2022/10/22 09:44:36;;;;;;;18.35;2.97;;;15.50;99.90;;;;;;5007711;28;20064;-68
2022/10/22 09:47:24;;;;;;;22.33;3.42;;;15.60;99.90;;;;;;5008180;28;20048;-67
2022/10/22 09:50:29;;;;;;;22.13;3.17;;;15.60;99.90;;;;;;4978223;28;20165;-67
2022/10/22 09:53:00;;;;;;;16.27;3.30;;;15.70;99.90;;;;;;5005874;28;20080;-67
2022/10/22 09:55:27;;;;;;;25.63;3.65;;;15.80;99.90;;;;;;5009311;28;20049;-66
2022/10/22 09:57:55;;;;;;;16.73;2.58;;;15.80;99.90;;;;;;5009255;28;20057;-68
2022/10/22 10:00:23;;;;;;;17.70;3.33;;;15.90;99.90;;;;;;5009086;28;20057;-68
2022/10/22 10:02:56;;;;;;;22.35;3.72;;;15.90;99.90;;;;;;5008735;28;20100;-67
2022/10/22 10:05:33;;;;;;;16.80;3.08;;;15.90;99.90;;;;;;5007571;28;20050;-67
2022/10/22 10:08:14;;;;;;;19.23;4.25;;;16.00;99.90;;;;;;5007876;28;20054;-67
2022/10/22 10:10:51;;;;;;;25.92;4.80;;;16.10;99.90;;;;;;5006114;28;20045;-66
2022/10/22 10:13:34;;;;;;;28.80;6.68;;;16.10;99.90;;;;;;5006035;28;20049;-68
2022/10/22 10:16:13;;;;;;;24.45;5.38;;;16.20;99.90;;;;;;5007200;28;20057;-68
2022/10/22 10:18:53;;;;;;;17.52;3.03;;;16.20;99.90;;;;;;5003948;28;20049;-67
2022/10/22 10:21:37;;;;;;;14.35;2.88;;;16.30;99.90;;;;;;5006891;28;20062;-67
2022/10/22 10:24:15;;;;;;;22.13;3.50;;;16.40;99.90;;;;;;5008315;28;20050;-67
2022/10/22 10:26:52;;;;;;;26.63;3.28;;;16.40;99.90;;;;;;5006644;28;20044;-66
2022/10/22 10:30:02;;;;;;;16.25;3.47;;;16.40;99.90;;;;;;5006491;28;20061;-65
2022/10/22 10:32:54;;;;;;;13.75;3.15;;;16.40;99.90;;;;;;5005886;28;20052;-66
2022/10/22 10:35:54;;;;;;;15.95;2.70;;;16.50;99.90;;;;;;5007979;28;20052;-68
2022/10/22 10:38:26;;;;;;;16.73;3.25;;;16.60;99.90;;;;;;5006337;28;20042;-68
2022/10/22 10:41:37;;;;;;;23.73;2.95;;;16.70;99.90;;;;;;5007454;28;20405;-66
2022/10/22 10:44:29;;;;;;;14.65;3.60;;;16.60;99.90;;;;;;5004070;28;20045;-68
2022/10/22 10:47:21;;;;;;;12.95;2.88;;;16.70;99.90;;;;;;5007343;28;20053;-66
2022/10/22 10:49:48;;;;;;;17.30;2.88;;;16.80;99.90;;;;;;5005190;28;20482;-66
2022/10/22 10:52:35;;;;;;;28.52;3.50;;;16.80;99.90;;;;;;5022612;28;20156;-67
2022/10/22 10:55:18;;;;;;;20.70;2.75;;;16.90;99.90;;;;;;5004156;28;20042;-67
2022/10/22 10:58:02;;;;;;;13.70;2.40;;;16.90;99.90;;;;;;4998487;28;20054;-67
2022/10/22 11:00:31;;;;;;;14.77;3.55;;;16.80;99.90;;;;;;4995856;28;20208;-66
2022/10/22 11:03:23;;;;;;;23.55;2.97;;;16.90;99.90;;;;;;5005896;28;20050;-66
2022/10/22 11:06:03;;;;;;;11.52;2.40;;;17.00;99.90;;;;;;4997455;28;20513;-66
2022/10/22 11:08:31;;;;;;;24.95;3.20;;;17.00;99.90;;;;;;5005598;28;20048;-66
2022/10/22 11:11:06;;;;;;;17.63;3.88;;;17.00;99.90;;;;;;5005440;28;20056;-67
2022/10/22 11:13:48;;;;;;;16.77;2.97;;;17.10;99.90;;;;;;5005584;28;20065;-65
2022/10/22 11:16:22;;;;;;;12.10;2.58;;;17.10;99.90;;;;;;5022358;28;20129;-67
2022/10/22 11:18:54;;;;;;;18.27;3.22;;;17.20;99.90;;;;;;5004933;28;20064;-67
2022/10/22 11:21:26;;;;;;;19.88;2.97;;;17.20;99.90;;;;;;4997618;28;20485;-67
2022/10/22 11:24:06;;;;;;;20.30;3.20;;;17.30;99.90;;;;;;5006431;28;20100;-67
2022/10/22 11:26:48;;;;;;;17.30;3.80;;;17.30;99.90;;;;;;5006689;28;20077;-66
2022/10/22 11:29:20;;;;;;;14.35;3.03;;;17.40;99.90;;;;;;4988487;28;20333;-66
2022/10/22 11:31:48;;;;;;;13.95;3.08;;;17.40;99.90;;;;;;5004494;28;20057;-67
2022/10/22 11:34:21;;;;;;;18.15;2.70;;;17.50;99.90;;;;;;5004908;28;20068;-65
2022/10/22 11:36:59;;;;;;;20.20;3.08;;;17.40;99.90;;;;;;5005023;28;20077;-65
2022/10/22 11:39:30;;;;;;;14.20;2.85;;;17.50;99.90;;;;;;5005116;28;20334;-63
2022/10/22 11:42:02;;;;;;;12.23;2.38;;;17.60;99.90;;;;;;5005686;28;20474;-66
2022/10/22 11:44:31;;;;;;;13.57;3.40;;;17.60;99.90;;;;;;5004705;28;20046;-66
2022/10/22 11:47:08;;;;;;;19.08;2.70;;;17.70;99.90;;;;;;5004299;28;20543;-66
2022/10/22 11:50:15;;;;;;;8.15;2.08;;;17.80;99.90;;;;;;5004148;28;20466;-64
2022/10/22 11:53:26;;;;;;;16.80;2.35;;;17.70;99.90;;;;;;4999189;28;20133;-65
2022/10/22 11:55:58;;;;;;;12.85;2.17;;;17.80;99.90;;;;;;4996029;28;20059;-67
2022/10/22 11:58:26;;;;;;;13.65;3.33;;;17.80;99.90;;;;;;5004194;28;20053;-67
2022/10/22 12:00:54;;;;;;;17.35;3.15;;;17.90;99.90;;;;;;5005696;28;20548;-64
2022/10/22 12:03:27;;;;;;;18.45;4.32;;;18.00;99.90;;;;;;5005687;28;20452;-65
2022/10/22 12:06:12;;;;;;;19.23;3.67;;;18.10;99.90;;;;;;5005784;28;20057;-66
2022/10/22 12:08:47;;;;;;;11.93;3.03;;;18.10;99.90;;;;;;5005832;28;20493;-66
2022/10/22 12:11:37;;;;;;;16.33;3.47;;;18.10;99.90;;;;;;5006180;28;20104;-65
2022/10/22 12:14:31;;;;;;;10.93;2.55;;;18.10;99.90;;;;;;5004666;28;20083;-66
2022/10/22 12:17:01;;;;;;;14.32;3.72;;;18.10;99.90;;;;;;5004208;28;20046;-65
2022/10/22 12:19:30;;;;;;;16.60;3.35;;;18.10;99.90;;;;;;5004521;28;20522;-66
2022/10/22 12:22:00;;;;;;;14.48;4.25;;;18.20;99.90;;;;;;5004337;28;20169;-66
2022/10/22 12:24:31;;;;;;;10.68;2.60;;;18.20;99.90;;;;;;5005372;28;20136;-66
2022/10/22 12:26:58;;;;;;;26.38;3.05;;;18.20;99.90;;;;;;4988100;28;20049;-66
2022/10/22 12:29:25;;;;;;;21.15;3.53;;;18.20;99.90;;;;;;5005702;28;20088;-63
2022/10/22 12:31:53;;;;;;;11.38;1.88;;;18.20;99.90;;;;;;5005866;28;20072;-68
2022/10/22 12:34:22;;;;;;;11.27;2.55;;;18.20;99.90;;;;;;5005316;28;20439;-67
2022/10/22 12:36:50;;;;;;;14.20;2.50;;;18.40;99.90;;;;;;5005466;28;20049;-67
2022/10/22 12:39:18;;;;;;;13.95;1.85;;;18.50;99.90;;;;;;5006334;28;20076;-66
2022/10/22 12:41:45;;;;;;;12.98;2.28;;;18.50;99.90;;;;;;5006244;28;20046;-67
2022/10/22 12:44:13;;;;;;;11.25;2.60;;;18.40;99.90;;;;;;5004293;28;20057;-66
2022/10/22 12:46:41;;;;;;;9.68;2.83;;;18.40;99.90;;;;;;4987732;28;20046;-67
2022/10/22 12:49:13;;;;;;;11.60;1.98;;;18.30;99.90;;;;;;5003652;28;20521;-66
2022/10/22 12:51:39;;;;;;;11.27;2.40;;;18.30;99.90;;;;;;5003810;28;20060;-65
2022/10/22 12:54:08;;;;;;;11.30;2.50;;;18.30;99.90;;;;;;5004776;28;20068;-65
2022/10/22 12:56:35;;;;;;;13.77;3.00;;;18.30;99.90;;;;;;5003887;28;20452;-64
2022/10/22 12:59:26;;;;;;;17.45;2.45;;;18.20;99.90;;;;;;5003377;28;20050;-65
2022/10/22 13:01:52;;;;;;;15.05;2.55;;;18.30;99.90;;;;;;4998626;28;20049;-65